»·PEaware :: N17MA KAVX-KSAN

N17MA :: KAVX-KSAN

FLIGHT INFORMATION

Flight Status: Arrived
Operator: Privately registered:
United States
More flights under this callsign
Pilot: Diego M. (28112)
Aircraft: BEECH AIRCRAFT BARON
(BE58)
More flights by this aircraft type
Origin: KAVX Catalina
United States
Destination: KSAN San Diego Intl-Lindbergh
United States
More flights between these airports :: More routes between these airports
Route: SXC V208 OCN V23 MZB
File this flight plan on PilotEdge
Remarks: CSTP56
Altitude:
(Current/Filed)
5,000ft
Speed:
(Current/Filed)
150kts
Departed: 20-May-20 01:35 PM
Arrived: 20-May-20 02:23 PM
Distance/Time
Traveled:
74nm/0:48
Distance/Time
To Go:
Arrived

Flight Plot

Page will automatically refresh every two minutes.


Map Options




Map Legend


Flown Route
Filed Route
Departure Airport
Arrival Airport
Navaid (VOR, NDB)
Fix

Horizontal Profiles

Position Reports

Time Latitude Longitude Heading Altitude Ground
Speed
20-May-20 13:05 33.403881 -118.414879 254 1571ft 0kts
20-May-20 13:06 33.403881 -118.414879 254 1571ft 0kts
20-May-20 13:07 33.403881 -118.414879 254 1571ft 0kts
20-May-20 13:08 33.403881 -118.414879 254 1571ft 0kts
20-May-20 13:09 33.403881 -118.414879 254 1571ft 0kts
20-May-20 13:10 33.403881 -118.414879 254 1571ft 0kts
20-May-20 13:11 33.403881 -118.414879 254 1571ft 0kts
20-May-20 13:12 33.403881 -118.414879 254 1571ft 0kts
20-May-20 13:13 33.403881 -118.414879 254 1571ft 0kts
20-May-20 13:14 33.403881 -118.414879 254 1571ft 0kts
20-May-20 13:15 33.403881 -118.414879 254 1571ft 0kts
20-May-20 13:16 33.403881 -118.414879 254 1571ft 0kts
20-May-20 13:17 33.403881 -118.414879 254 1571ft 0kts
20-May-20 13:18 33.403881 -118.414879 254 1571ft 0kts
20-May-20 13:19 33.403881 -118.414879 254 1571ft 0kts
20-May-20 13:20 33.403881 -118.414879 254 1571ft 0kts
20-May-20 13:21 33.403881 -118.414879 254 1571ft 0kts
20-May-20 13:22 33.403881 -118.414879 254 1571ft 0kts
20-May-20 13:23 33.403881 -118.414879 254 1571ft 0kts
20-May-20 13:24 33.403881 -118.414879 254 1571ft 0kts
20-May-20 13:25 33.403881 -118.414879 254 1571ft 0kts
20-May-20 13:26 33.403881 -118.414879 254 1571ft 0kts
20-May-20 13:27 33.403881 -118.414879 254 1571ft 0kts
20-May-20 13:28 33.403881 -118.414879 254 1571ft 0kts
20-May-20 13:30 33.403881 -118.414879 254 1571ft 0kts
20-May-20 13:31 33.403881 -118.414879 254 1571ft 0kts
20-May-20 13:32 33.403881 -118.414879 254 1571ft 0kts
20-May-20 13:33 33.403881 -118.414879 254 1571ft 0kts
20-May-20 13:34 33.405916 -118.413526 54 1564ft 32kts
20-May-20 13:35 33.404180 -118.417145 235 1598ft 91kts
20-May-20 13:36 33.385071 -118.440405 179 2948ft 113kts
20-May-20 13:37 33.360147 -118.417707 93 3860ft 144kts
20-May-20 13:38 33.370398 -118.370513 98 3737ft 140kts
20-May-20 13:39 33.364828 -118.329021 99 3963ft 127kts
20-May-20 13:40 33.359058 -118.283524 98 3981ft 146kts
20-May-20 13:41 33.353032 -118.234425 98 3950ft 151kts
20-May-20 13:42 33.347162 -118.185673 99 3901ft 141kts
20-May-20 13:43 33.341692 -118.140288 99 3915ft 135kts
20-May-20 13:44 33.336366 -118.095871 99 3922ft 134kts
20-May-20 13:45 33.331015 -118.051691 99 3930ft 134kts
20-May-20 13:46 33.325745 -118.008303 99 4026ft 128kts
20-May-20 13:46 33.321844 -117.975789 99 4329ft 108kts
20-May-20 13:48 33.315528 -117.924089 98 4945ft 171kts
20-May-20 13:48 33.309343 -117.874023 98 5055ft 188kts
20-May-20 13:49 33.301650 -117.810341 97 4990ft 195kts
20-May-20 13:51 33.288860 -117.736252 102 4973ft 196kts
20-May-20 13:51 33.278075 -117.683852 104 5002ft 194kts
20-May-20 13:52 33.266780 -117.620234 100 4992ft 195kts
20-May-20 13:53 33.257595 -117.556347 97 4991ft 194kts
20-May-20 13:54 33.249704 -117.491995 97 4983ft 195kts
20-May-20 13:55 33.240020 -117.427884 125 4848ft 201kts
20-May-20 13:56 33.193260 -117.398452 161 4920ft 192kts
20-May-20 13:57 33.143404 -117.376757 162 4936ft 191kts
20-May-20 13:58 33.093389 -117.355716 162 4939ft 190kts
20-May-20 13:59 33.048595 -117.336903 163 4939ft 190kts
20-May-20 14:00 32.998609 -117.315933 163 4940ft 190kts
20-May-20 14:01 32.948589 -117.294971 163 4941ft 190kts
20-May-20 14:02 32.898541 -117.274023 163 4944ft 191kts
20-May-20 14:03 32.848157 -117.252960 163 4945ft 191kts
20-May-20 14:04 32.801214 -117.233262 164 4911ft 145kts
20-May-20 14:05 32.767901 -117.205692 104 5017ft 162kts
20-May-20 14:06 32.757647 -117.150577 102 4951ft 171kts
20-May-20 14:07 32.747473 -117.094637 102 4942ft 172kts
20-May-20 14:08 32.736696 -117.034864 102 5008ft 194kts
20-May-20 14:09 32.725233 -116.970988 102 4923ft 198kts
20-May-20 14:10 32.713854 -116.907309 101 4920ft 197kts
20-May-20 14:11 32.702213 -116.844045 101 4933ft 196kts
20-May-20 14:12 32.670338 -116.835990 248 4938ft 136kts
20-May-20 14:13 32.658757 -116.880592 282 4905ft 146kts
20-May-20 14:14 32.668623 -116.923413 286 4082ft 98kts
20-May-20 14:15 32.677449 -116.959444 285 3951ft 129kts
20-May-20 14:16 32.688027 -117.002508 285 2863ft 127kts
20-May-20 14:17 32.696915 -117.038968 286 2669ft 112kts
20-May-20 14:18 32.705678 -117.074988 285 2200ft 117kts
20-May-20 14:19 32.714206 -117.110085 285 1398ft 102kts
20-May-20 14:20 32.721594 -117.140413 284 707ft 85kts
20-May-20 14:21 32.728337 -117.167933 285 330ft 89kts
20-May-20 14:22 32.733381 -117.188059 322 17ft 19kts
20-May-20 14:23 32.733950 -117.188087 17 17ft 0kts
20-May-20 14:24 32.734114 -117.187230 105 17ft 13kts
20-May-20 14:25 32.732652 -117.181173 105 17ft 25kts
20-May-20 14:26 32.732830 -117.178202 54 20ft 0kts

Navigation Log

Ident Type
Flight plan parsing failed, navigation log unavailable